createdAt,value
2019-01-05T00:00:01.773Z,995.81
2019-01-05T00:01:01.965Z,995.83
2019-01-05T00:02:02.137Z,995.84
2019-01-05T00:03:02.306Z,995.82
2019-01-05T00:04:02.503Z,995.81
2019-01-05T00:05:02.697Z,995.85
2019-01-05T00:06:02.882Z,995.88
2019-01-05T00:07:03.067Z,995.85
2019-01-05T00:08:03.244Z,995.79
2019-01-05T00:09:03.422Z,995.78
2019-01-05T00:10:03.614Z,995.82
2019-01-05T00:11:03.797Z,995.83
2019-01-05T00:12:04.016Z,995.86
2019-01-05T00:13:04.156Z,995.82
2019-01-05T00:14:04.335Z,995.83
2019-01-05T00:15:04.515Z,995.80
2019-01-05T00:16:04.712Z,995.75
2019-01-05T00:17:04.905Z,995.71
2019-01-05T00:18:05.085Z,995.72
2019-01-05T00:19:05.261Z,995.69
2019-01-05T00:20:05.446Z,995.68
2019-01-05T00:21:05.630Z,995.63
2019-01-05T00:22:05.808Z,995.63
2019-01-05T00:23:05.985Z,995.62
2019-01-05T00:24:06.165Z,995.66
2019-01-05T00:25:06.351Z,995.62
2019-01-05T00:26:06.530Z,995.62
2019-01-05T00:27:06.707Z,995.59
2019-01-05T00:28:06.892Z,995.63
2019-01-05T00:29:07.071Z,995.58
2019-01-05T00:30:07.251Z,995.57
2019-01-05T00:31:07.431Z,995.55
2019-01-05T00:32:07.616Z,995.53
2019-01-05T00:33:07.810Z,995.56
2019-01-05T00:34:07.975Z,995.52
2019-01-05T00:35:08.155Z,995.53
2019-01-05T00:36:08.336Z,995.52
2019-01-05T00:37:08.516Z,995.50
2019-01-05T00:38:08.691Z,995.46
2019-01-05T00:39:08.884Z,995.46
2019-01-05T00:40:09.062Z,995.48
2019-01-05T00:41:09.245Z,995.48
2019-01-05T00:42:09.424Z,995.47
2019-01-05T00:43:09.609Z,995.52
2019-01-05T00:44:09.799Z,995.48
2019-01-05T00:45:09.957Z,995.52
2019-01-05T00:46:10.132Z,995.46
2019-01-05T00:47:10.316Z,995.46
2019-01-05T00:48:10.507Z,995.45
2019-01-05T00:49:10.676Z,995.44
2019-01-05T00:50:10.850Z,995.41
2019-01-05T00:51:11.038Z,995.38
2019-01-05T00:52:11.212Z,995.38
2019-01-05T00:53:11.405Z,995.44
2019-01-05T00:54:11.591Z,995.37
2019-01-05T00:55:11.776Z,995.39
2019-01-05T00:56:11.949Z,995.41
2019-01-05T00:57:12.157Z,995.37
2019-01-05T00:58:12.315Z,995.41
2019-01-05T00:59:12.500Z,995.40
2019-01-05T01:00:12.673Z,995.44
2019-01-05T01:01:12.859Z,995.40
2019-01-05T01:02:13.046Z,995.39
2019-01-05T01:03:13.221Z,995.41
2019-01-05T01:04:13.403Z,995.40
2019-01-05T01:05:13.579Z,995.43
2019-01-05T01:06:13.753Z,995.41
2019-01-05T01:07:13.935Z,995.42
2019-01-05T01:08:14.113Z,995.39
2019-01-05T01:09:14.304Z,995.34
2019-01-05T01:10:14.486Z,995.35
2019-01-05T01:11:14.676Z,995.37
2019-01-05T01:12:14.855Z,995.39
2019-01-05T01:13:15.041Z,995.41
2019-01-05T01:14:15.226Z,995.41
2019-01-05T01:15:15.400Z,995.38
2019-01-05T01:16:15.583Z,995.41
2019-01-05T01:17:15.764Z,995.44
2019-01-05T01:18:15.946Z,995.44
2019-01-05T01:19:16.130Z,995.39
2019-01-05T01:20:16.307Z,995.44
2019-01-05T01:21:16.487Z,995.41
2019-01-05T01:22:16.667Z,995.41
2019-01-05T01:23:16.845Z,995.43
2019-01-05T01:24:17.036Z,995.41
2019-01-05T01:25:17.215Z,995.40
2019-01-05T01:26:17.394Z,995.36
2019-01-05T01:27:17.573Z,995.37
2019-01-05T01:28:17.752Z,995.33
2019-01-05T01:29:17.934Z,995.36
2019-01-05T01:30:18.110Z,995.34
2019-01-05T01:31:18.287Z,995.35
2019-01-05T01:32:18.474Z,995.34
2019-01-05T01:33:18.651Z,995.31
2019-01-05T01:34:18.834Z,995.32
2019-01-05T01:35:19.004Z,995.31
2019-01-05T01:36:19.188Z,995.33
2019-01-05T01:37:19.370Z,995.34
2019-01-05T01:38:19.542Z,995.34
2019-01-05T01:39:19.726Z,995.32
2019-01-05T01:40:19.903Z,995.35
2019-01-05T01:41:20.103Z,995.33
2019-01-05T01:42:20.265Z,995.31
2019-01-05T01:43:20.449Z,995.29
2019-01-05T01:44:20.629Z,995.30
2019-01-05T01:45:20.808Z,995.30
2019-01-05T01:46:20.988Z,995.28
2019-01-05T01:47:21.164Z,995.26
2019-01-05T01:48:21.351Z,995.21
2019-01-05T01:49:21.523Z,995.19
2019-01-05T01:50:21.706Z,995.24
2019-01-05T01:51:21.886Z,995.17
2019-01-05T01:52:22.062Z,995.20
2019-01-05T01:53:22.246Z,995.14
2019-01-05T01:54:22.430Z,995.16
2019-01-05T01:55:22.611Z,995.07
2019-01-05T01:56:22.793Z,995.04
2019-01-05T01:57:22.988Z,995.00
2019-01-05T01:58:23.169Z,994.95
2019-01-05T01:59:23.345Z,994.97
2019-01-05T02:00:23.535Z,994.92
2019-01-05T02:01:23.708Z,994.92
2019-01-05T02:02:23.891Z,994.92
2019-01-05T02:03:24.069Z,994.86
2019-01-05T02:04:24.257Z,994.90
2019-01-05T02:05:24.439Z,994.83
2019-01-05T02:06:24.615Z,994.84
2019-01-05T02:07:24.800Z,994.82
2019-01-05T02:08:24.978Z,994.82
2019-01-05T02:09:25.157Z,994.79
2019-01-05T02:10:25.343Z,994.80
2019-01-05T02:11:25.523Z,994.73
2019-01-05T02:12:25.703Z,994.70
2019-01-05T02:13:25.892Z,994.64
2019-01-05T02:14:26.075Z,994.67
2019-01-05T02:15:26.263Z,994.63
2019-01-05T02:16:26.436Z,994.65
2019-01-05T02:17:26.618Z,994.60
2019-01-05T02:18:26.800Z,994.58
2019-01-05T02:19:26.989Z,994.56
2019-01-05T02:20:27.172Z,994.54
2019-01-05T02:21:27.349Z,994.56
2019-01-05T02:22:27.533Z,994.55
2019-01-05T02:23:27.711Z,994.49
2019-01-05T02:24:27.890Z,994.47
2019-01-05T02:25:28.074Z,994.43
2019-01-05T02:26:28.251Z,994.35
2019-01-05T02:27:28.433Z,994.45
2019-01-05T02:28:28.611Z,994.40
2019-01-05T02:29:28.795Z,994.39
2019-01-05T02:30:28.970Z,994.44
2019-01-05T02:31:29.151Z,994.38
2019-01-05T02:32:29.332Z,994.39
2019-01-05T02:33:29.515Z,994.31
2019-01-05T02:34:29.699Z,994.35
2019-01-05T02:35:29.883Z,994.29
2019-01-05T02:36:30.058Z,994.30
2019-01-05T02:37:30.239Z,994.20
2019-01-05T02:38:30.421Z,994.19
2019-01-05T02:39:30.599Z,994.17
2019-01-05T02:40:30.776Z,994.17
2019-01-05T02:41:30.955Z,994.11
2019-01-05T02:42:31.136Z,994.14
2019-01-05T02:43:31.314Z,994.15
2019-01-05T02:44:31.493Z,994.10
2019-01-05T02:45:31.674Z,994.10
2019-01-05T02:46:31.853Z,994.06
2019-01-05T02:47:32.037Z,994.08
2019-01-05T02:48:32.216Z,994.03
2019-01-05T02:49:32.394Z,994.03
2019-01-05T02:50:32.576Z,994.06
2019-01-05T02:51:32.762Z,994.03
2019-01-05T02:52:32.933Z,994.04
2019-01-05T02:53:33.113Z,993.96
2019-01-05T02:54:33.297Z,994.00
2019-01-05T02:55:33.481Z,994.01
2019-01-05T02:56:33.656Z,994.04
2019-01-05T02:57:33.842Z,994.07
2019-01-05T02:58:34.016Z,994.07
2019-01-05T02:59:34.194Z,994.09
2019-01-05T03:00:34.376Z,994.00
2019-01-05T03:01:34.553Z,994.00
2019-01-05T03:02:34.738Z,993.98
2019-01-05T03:03:34.922Z,993.92
2019-01-05T03:04:35.096Z,993.89
2019-01-05T03:05:35.278Z,993.95
2019-01-05T03:06:35.454Z,993.89
2019-01-05T03:07:35.636Z,993.87
2019-01-05T03:08:35.816Z,993.86
2019-01-05T03:09:36.001Z,993.85
2019-01-05T03:10:36.179Z,993.84
2019-01-05T03:11:36.363Z,993.81
2019-01-05T03:12:36.545Z,993.76
2019-01-05T03:13:36.721Z,993.78
2019-01-05T03:14:36.904Z,993.77
2019-01-05T03:15:37.088Z,993.75
2019-01-05T03:16:37.266Z,993.71
2019-01-05T03:17:37.445Z,993.71
2019-01-05T03:18:37.634Z,993.74
2019-01-05T03:19:37.810Z,993.65
2019-01-05T03:20:37.994Z,993.66
2019-01-05T03:21:38.175Z,993.64
2019-01-05T03:22:38.352Z,993.61
2019-01-05T03:23:38.547Z,993.57
2019-01-05T03:24:38.728Z,993.54
2019-01-05T03:25:38.906Z,993.57
2019-01-05T03:26:39.101Z,993.51
2019-01-05T03:27:39.282Z,993.43
2019-01-05T03:28:39.460Z,993.44
2019-01-05T03:29:39.637Z,993.48
2019-01-05T03:30:39.819Z,993.47
2019-01-05T03:31:40.001Z,993.47
2019-01-05T03:32:40.181Z,993.34
2019-01-05T03:33:40.364Z,993.34
2019-01-05T03:34:40.554Z,993.31
2019-01-05T03:35:40.723Z,993.29
2019-01-05T03:36:40.909Z,993.34
2019-01-05T03:37:41.086Z,993.21
2019-01-05T03:38:41.271Z,993.28
2019-01-05T03:39:41.451Z,993.19
2019-01-05T03:40:41.622Z,993.20
2019-01-05T03:41:41.808Z,993.18
2019-01-05T03:42:41.987Z,993.13
2019-01-05T03:43:42.181Z,993.14
2019-01-05T03:44:42.350Z,993.13
2019-01-05T03:45:42.526Z,993.13
2019-01-05T03:46:42.706Z,993.11
2019-01-05T03:47:42.883Z,993.10
2019-01-05T03:48:43.088Z,993.14
2019-01-05T03:49:43.259Z,993.13
2019-01-05T03:50:43.435Z,993.11
2019-01-05T03:51:43.618Z,993.14
2019-01-05T03:52:43.802Z,993.09
2019-01-05T03:53:43.979Z,993.13
2019-01-05T03:54:44.164Z,993.11
2019-01-05T03:55:44.343Z,993.10
2019-01-05T03:56:44.522Z,993.08
2019-01-05T03:57:44.702Z,993.09
2019-01-05T03:58:44.882Z,993.09
2019-01-05T03:59:45.080Z,993.08
2019-01-05T04:00:45.259Z,993.05
2019-01-05T04:01:45.433Z,992.99
2019-01-05T04:02:45.611Z,993.02
2019-01-05T04:03:45.790Z,992.96
2019-01-05T04:04:45.967Z,992.94
2019-01-05T04:05:46.152Z,992.96
2019-01-05T04:06:46.329Z,992.97
2019-01-05T04:07:46.507Z,992.89
2019-01-05T04:08:46.690Z,992.86
2019-01-05T04:09:46.890Z,992.83
2019-01-05T04:10:47.068Z,992.77
2019-01-05T04:11:47.251Z,992.86
2019-01-05T04:12:47.431Z,992.80
2019-01-05T04:13:47.610Z,992.79
2019-01-05T04:14:47.791Z,992.77
2019-01-05T04:15:47.969Z,992.72
2019-01-05T04:16:48.151Z,992.69
2019-01-05T04:17:48.332Z,992.70
2019-01-05T04:18:48.511Z,992.69
2019-01-05T04:19:48.696Z,992.67
2019-01-05T04:20:48.872Z,992.71
2019-01-05T04:21:49.052Z,992.73
2019-01-05T04:22:49.236Z,992.73
2019-01-05T04:23:49.412Z,992.69
2019-01-05T04:24:49.597Z,992.71
2019-01-05T04:25:49.774Z,992.65
2019-01-05T04:26:49.955Z,992.68
2019-01-05T04:27:50.159Z,992.66
2019-01-05T04:28:50.330Z,992.64
2019-01-05T04:29:50.513Z,992.61
2019-01-05T04:30:50.689Z,992.59
2019-01-05T04:31:50.874Z,992.57
2019-01-05T04:32:51.055Z,992.51
2019-01-05T04:33:51.236Z,992.49
2019-01-05T04:34:51.414Z,992.46
2019-01-05T04:35:51.597Z,992.48
2019-01-05T04:36:51.777Z,992.50
2019-01-05T04:37:51.965Z,992.41
2019-01-05T04:38:52.146Z,992.41
2019-01-05T04:39:52.330Z,992.38
2019-01-05T04:40:52.517Z,992.38
2019-01-05T04:41:52.690Z,992.41
2019-01-05T04:42:52.871Z,992.33
2019-01-05T04:43:53.048Z,992.31
2019-01-05T04:44:53.227Z,992.31
2019-01-05T04:45:53.410Z,992.32
2019-01-05T04:46:53.596Z,992.30
2019-01-05T04:47:53.775Z,992.23
2019-01-05T04:48:53.956Z,992.15
2019-01-05T04:49:54.143Z,992.13
2019-01-05T04:50:54.318Z,992.11
2019-01-05T04:51:54.501Z,992.07
2019-01-05T04:52:54.679Z,992.07
2019-01-05T04:53:54.860Z,992.01
2019-01-05T04:54:55.041Z,991.97
2019-01-05T04:55:55.207Z,991.98
2019-01-05T04:56:55.387Z,991.94
2019-01-05T04:57:55.569Z,991.98
2019-01-05T04:58:55.750Z,991.90
2019-01-05T04:59:55.951Z,991.88
2019-01-05T05:00:56.129Z,991.84
2019-01-05T05:01:56.314Z,991.77
2019-01-05T05:02:56.493Z,991.77
2019-01-05T05:03:56.675Z,991.73
2019-01-05T05:04:56.855Z,991.61
2019-01-05T05:05:57.045Z,991.63
2019-01-05T05:06:57.221Z,991.57
2019-01-05T05:07:57.405Z,991.50
2019-01-05T05:08:57.580Z,991.55
2019-01-05T05:09:57.762Z,991.58
2019-01-05T05:10:57.955Z,991.64
2019-01-05T05:11:58.122Z,991.71
2019-01-05T05:12:58.302Z,991.71
2019-01-05T05:13:58.485Z,991.67
2019-01-05T05:14:58.669Z,991.66
2019-01-05T05:15:58.845Z,991.73
2019-01-05T05:16:59.025Z,991.76
2019-01-05T05:17:59.222Z,991.69
2019-01-05T05:21:42.257Z,991.77
2019-01-05T05:22:42.438Z,991.75
2019-01-05T05:23:42.610Z,991.78
2019-01-05T05:24:42.783Z,991.75
2019-01-05T05:25:42.963Z,991.64
2019-01-05T05:26:43.145Z,991.67
2019-01-05T05:27:43.336Z,991.69
2019-01-05T05:28:43.512Z,991.70
2019-01-05T05:29:43.694Z,991.64
2019-01-05T05:30:43.862Z,991.74
2019-01-05T05:31:44.041Z,991.74
2019-01-05T05:32:44.234Z,991.68
2019-01-05T05:33:44.417Z,991.57
2019-01-05T05:34:44.611Z,991.58
2019-01-05T05:35:44.790Z,991.59
2019-01-05T05:36:45.004Z,991.60
2019-01-05T05:37:45.168Z,991.58
2019-01-05T05:38:45.447Z,991.51
2019-01-05T05:39:45.512Z,991.45
2019-01-05T05:40:45.701Z,991.47
2019-01-05T05:41:45.872Z,991.50
2019-01-05T05:42:46.050Z,991.45
2019-01-05T05:43:46.234Z,991.49
2019-01-05T05:44:46.415Z,991.40
2019-01-05T05:45:46.593Z,991.43
2019-01-05T05:46:46.781Z,991.38
2019-01-05T05:47:46.979Z,991.36
2019-01-05T05:48:47.156Z,991.32
2019-01-05T05:49:47.321Z,991.41
2019-01-05T05:50:47.505Z,991.41
2019-01-05T05:51:47.682Z,991.41
2019-01-05T05:52:47.854Z,991.39
2019-01-05T05:53:48.032Z,991.42
2019-01-05T05:54:48.220Z,991.38
2019-01-05T05:55:48.410Z,991.46
2019-01-05T05:56:48.579Z,991.47
2019-01-05T05:57:48.751Z,991.53
2019-01-05T05:58:48.927Z,991.57
2019-01-05T05:59:49.107Z,991.50
2019-01-05T06:00:49.288Z,991.59
2019-01-05T06:01:49.473Z,991.42
2019-01-05T06:02:49.651Z,991.50
2019-01-05T06:03:49.838Z,991.50
2019-01-05T06:04:50.023Z,991.55
2019-01-05T06:05:50.202Z,991.53
2019-01-05T06:06:50.384Z,991.58
2019-01-05T06:07:50.566Z,991.57
2019-01-05T06:08:50.746Z,991.62
2019-01-05T06:09:50.922Z,991.65
2019-01-05T06:10:51.106Z,991.63
2019-01-05T06:11:51.284Z,991.55
2019-01-05T06:12:51.467Z,991.54
2019-01-05T06:13:51.645Z,991.49
2019-01-05T06:14:51.825Z,991.47
2019-01-05T06:15:52.004Z,991.47
2019-01-05T06:16:52.188Z,991.46
2019-01-05T06:17:52.376Z,991.40
2019-01-05T06:18:52.559Z,991.43
2019-01-05T06:19:52.738Z,991.41
2019-01-05T06:20:52.917Z,991.45
2019-01-05T06:21:53.098Z,991.50
2019-01-05T06:22:53.273Z,991.55
2019-01-05T06:23:53.456Z,991.50
2019-01-05T06:24:53.634Z,991.54
2019-01-05T06:25:53.814Z,991.55
2019-01-05T06:26:53.998Z,991.51
2019-01-05T06:27:54.222Z,991.53
2019-01-05T06:28:54.360Z,991.54
2019-01-05T06:29:54.554Z,991.53
2019-01-05T06:30:54.730Z,991.59
2019-01-05T06:31:54.926Z,991.61
2019-01-05T06:32:55.099Z,991.61
2019-01-05T06:33:55.282Z,991.63
2019-01-05T06:34:55.474Z,991.64
2019-01-05T06:35:55.650Z,991.59
2019-01-05T06:36:55.829Z,991.58
2019-01-05T06:37:56.013Z,991.57
2019-01-05T06:38:56.193Z,991.59
2019-01-05T06:39:56.381Z,991.58
2019-01-05T06:40:56.560Z,991.56
2019-01-05T06:41:56.749Z,991.59
2019-01-05T06:42:56.941Z,991.62
2019-01-05T06:43:57.106Z,991.63
2019-01-05T06:44:57.283Z,991.59
2019-01-05T06:45:57.472Z,991.59
2019-01-05T06:46:57.645Z,991.59
2019-01-05T06:47:57.829Z,991.59
2019-01-05T06:48:58.010Z,991.54
2019-01-05T06:49:58.236Z,991.52
2019-01-05T06:50:58.366Z,991.49
2019-01-05T06:51:58.545Z,991.51
2019-01-05T06:52:58.729Z,991.47
2019-01-05T06:53:58.905Z,991.53
2019-01-05T06:54:59.091Z,991.53
2019-01-05T06:55:59.266Z,991.55
2019-01-05T06:56:59.446Z,991.57
2019-01-05T06:57:59.626Z,991.59
2019-01-05T06:58:59.821Z,991.62
2019-01-05T06:59:59.977Z,991.62
2019-01-05T07:01:00.156Z,991.57
2019-01-05T07:02:00.331Z,991.60
2019-01-05T07:03:00.518Z,991.65
2019-01-05T07:04:00.702Z,991.62
2019-01-05T07:05:00.878Z,991.60
2019-01-05T07:06:01.063Z,991.59
2019-01-05T07:07:01.243Z,991.56
2019-01-05T07:08:01.428Z,991.53
2019-01-05T07:09:01.614Z,991.54
2019-01-05T07:10:01.788Z,991.49
2019-01-05T07:11:01.969Z,991.51
2019-01-05T07:12:02.144Z,991.54
2019-01-05T07:13:02.326Z,991.60
2019-01-05T07:14:02.508Z,991.57
2019-01-05T07:15:02.688Z,991.62
2019-01-05T07:16:02.868Z,991.54
2019-01-05T07:17:03.048Z,991.54
2019-01-05T07:18:03.236Z,991.54
2019-01-05T07:19:03.422Z,991.58
2019-01-05T07:20:03.595Z,991.61
2019-01-05T07:21:03.777Z,991.62
2019-01-05T07:22:03.951Z,991.58
2019-01-05T07:23:04.137Z,991.55
2019-01-05T07:24:04.311Z,991.58
2019-01-05T07:25:04.493Z,991.61
2019-01-05T07:26:04.678Z,991.60
2019-01-05T07:27:04.870Z,991.59
2019-01-05T07:28:05.051Z,991.57
2019-01-05T07:29:05.235Z,991.58
2019-01-05T07:30:05.418Z,991.58
2019-01-05T07:31:05.599Z,991.59
2019-01-05T07:32:05.782Z,991.63
2019-01-05T07:33:05.963Z,991.63
2019-01-05T07:34:06.142Z,991.63
2019-01-05T07:35:06.331Z,991.68
2019-01-05T07:36:06.506Z,991.71
2019-01-05T07:37:06.688Z,991.68
2019-01-05T07:38:06.870Z,991.74
2019-01-05T07:39:07.051Z,991.67
2019-01-05T07:40:07.230Z,991.65
2019-01-05T07:41:07.419Z,991.67
2019-01-05T07:42:07.597Z,991.60
2019-01-05T07:43:07.783Z,991.56
2019-01-05T07:44:07.962Z,991.51
2019-01-05T07:45:08.150Z,991.51
2019-01-05T07:46:08.333Z,991.53
2019-01-05T07:47:08.522Z,991.48
2019-01-05T07:48:08.693Z,991.48
2019-01-05T07:49:08.867Z,991.51
2019-01-05T07:50:09.060Z,991.49
2019-01-05T07:51:09.243Z,991.55
2019-01-05T07:52:09.428Z,991.55
2019-01-05T07:53:09.615Z,991.49
2019-01-05T07:54:09.796Z,991.54
2019-01-05T07:55:09.975Z,991.56
2019-01-05T07:56:10.173Z,991.50
2019-01-05T07:57:10.354Z,991.45
2019-01-05T07:58:10.536Z,991.49
2019-01-05T07:59:10.725Z,991.48
2019-01-05T08:00:10.902Z,991.58
2019-01-05T08:01:11.080Z,991.52
2019-01-05T08:02:11.267Z,991.52
2019-01-05T08:03:11.449Z,991.42
2019-01-05T08:04:11.633Z,991.44
2019-01-05T08:05:11.823Z,991.46
2019-01-05T08:06:12.003Z,991.45
2019-01-05T08:07:12.185Z,991.42
2019-01-05T08:08:12.371Z,991.46
2019-01-05T08:09:12.552Z,991.44
2019-01-05T08:10:12.734Z,991.41
2019-01-05T08:11:12.918Z,991.36
2019-01-05T08:12:13.095Z,991.43
2019-01-05T08:13:13.272Z,991.38
2019-01-05T08:14:13.463Z,991.37
2019-01-05T08:15:13.645Z,991.32
2019-01-05T08:16:13.834Z,991.31
2019-01-05T08:17:14.013Z,991.33
2019-01-05T08:18:14.197Z,991.30
2019-01-05T08:19:14.376Z,991.28
2019-01-05T08:20:14.553Z,991.29
2019-01-05T08:21:14.741Z,991.34
2019-01-05T08:22:14.915Z,991.36
2019-01-05T08:23:15.097Z,991.38
2019-01-05T08:24:15.274Z,991.40
2019-01-05T08:25:15.461Z,991.40
2019-01-05T08:26:15.644Z,991.46
2019-01-05T08:27:15.825Z,991.48
2019-01-05T08:28:16.003Z,991.47
2019-01-05T08:29:16.182Z,991.47
2019-01-05T08:30:16.373Z,991.41
2019-01-05T08:31:16.554Z,991.41
2019-01-05T08:32:16.744Z,991.43
2019-01-05T08:33:16.927Z,991.51
2019-01-05T08:34:17.103Z,991.48
2019-01-05T08:35:17.285Z,991.41
2019-01-05T08:36:17.467Z,991.51
2019-01-05T08:37:17.648Z,991.53
2019-01-05T08:38:17.823Z,991.52
2019-01-05T08:39:18.014Z,991.46
2019-01-05T08:40:18.190Z,991.49
2019-01-05T08:41:18.374Z,991.53
2019-01-05T08:42:18.548Z,991.47
2019-01-05T08:43:18.735Z,991.57
2019-01-05T08:44:18.916Z,991.57
2019-01-05T08:45:19.102Z,991.52
2019-01-05T08:46:19.293Z,991.52
2019-01-05T08:47:19.456Z,991.61
2019-01-05T08:48:19.639Z,991.61
2019-01-05T08:49:19.816Z,991.64
2019-01-05T08:50:20.010Z,991.70
2019-01-05T08:51:20.185Z,991.74
2019-01-05T08:52:20.356Z,991.64
2019-01-05T08:53:20.538Z,991.69
2019-01-05T08:54:20.720Z,991.69
2019-01-05T08:55:20.900Z,991.67
2019-01-05T08:56:21.079Z,991.65
2019-01-05T08:57:21.269Z,991.62
2019-01-05T08:58:21.451Z,991.64
2019-01-05T08:59:21.629Z,991.63
2019-01-05T09:00:21.834Z,991.64
2019-01-05T09:01:22.015Z,991.65
2019-01-05T09:02:22.303Z,991.60
2019-01-05T09:03:22.380Z,991.68
2019-01-05T09:04:22.562Z,991.68
2019-01-05T09:05:22.747Z,991.70
2019-01-05T09:06:22.908Z,991.72
2019-01-05T09:07:23.105Z,991.70
2019-01-05T09:08:23.280Z,991.70
2019-01-05T09:09:23.478Z,991.78
2019-01-05T09:10:23.654Z,991.77
2019-01-05T09:11:23.835Z,991.76
2019-01-05T09:12:24.021Z,991.73
2019-01-05T09:13:24.208Z,991.79
2019-01-05T09:14:24.415Z,991.82
2019-01-05T09:15:24.599Z,991.89
2019-01-05T09:16:24.782Z,991.80
2019-01-05T09:17:24.963Z,991.88
2019-01-05T09:18:25.164Z,991.84
2019-01-05T09:19:25.368Z,991.82
2019-01-05T09:20:25.550Z,991.83
2019-01-05T09:21:25.730Z,991.80
2019-01-05T09:22:25.911Z,991.79
2019-01-05T09:23:26.099Z,991.83
2019-01-05T09:24:26.297Z,991.89
2019-01-05T09:25:26.466Z,991.92
2019-01-05T09:26:26.675Z,991.88
2019-01-05T09:27:26.856Z,991.97
2019-01-05T09:28:27.032Z,991.82
2019-01-05T09:29:27.215Z,991.88
2019-01-05T09:30:27.400Z,991.86
2019-01-05T09:31:27.574Z,991.89
2019-01-05T09:32:27.764Z,991.96
2019-01-05T09:33:27.974Z,991.92
2019-01-05T09:34:28.163Z,991.90
2019-01-05T09:35:28.343Z,991.92
2019-01-05T09:36:28.522Z,991.88
2019-01-05T09:37:28.715Z,991.86
2019-01-05T09:38:28.889Z,991.88
2019-01-05T09:39:29.074Z,991.89
2019-01-05T09:40:29.259Z,991.86
2019-01-05T09:41:29.441Z,991.89
2019-01-05T09:42:29.640Z,991.88
2019-01-05T09:43:29.829Z,991.92
2019-01-05T09:44:30.015Z,991.92
2019-01-05T09:45:30.193Z,991.87
2019-01-05T09:46:30.375Z,991.85
2019-01-05T09:47:30.561Z,991.88
2019-01-05T09:48:30.743Z,991.93
2019-01-05T09:49:30.922Z,991.90
2019-01-05T09:50:31.111Z,991.91
2019-01-05T09:51:31.289Z,991.88
2019-01-05T09:52:31.470Z,991.93
2019-01-05T09:53:31.675Z,991.88
2019-01-05T09:54:31.848Z,991.96
2019-01-05T09:55:32.042Z,991.95
2019-01-05T09:56:32.233Z,991.96
2019-01-05T09:57:32.410Z,991.93
2019-01-05T09:58:32.623Z,991.87
2019-01-05T09:59:32.793Z,991.86
2019-01-05T10:00:33.003Z,991.91
2019-01-05T10:01:33.175Z,991.83
2019-01-05T10:02:33.359Z,991.90
2019-01-05T10:03:33.561Z,991.79
2019-01-05T10:04:33.743Z,991.86
2019-01-05T10:05:33.933Z,991.85
2019-01-05T10:06:34.102Z,991.83
2019-01-05T10:07:34.277Z,991.84
2019-01-05T10:08:34.480Z,991.85
2019-01-05T10:09:34.650Z,991.83
2019-01-05T10:10:34.838Z,991.85
2019-01-05T10:11:35.023Z,991.87
2019-01-05T10:12:35.195Z,991.87
2019-01-05T10:13:35.377Z,991.88
2019-01-05T10:14:35.580Z,991.84
2019-01-05T10:15:35.766Z,991.79
2019-01-05T10:16:35.963Z,991.81
2019-01-05T10:17:36.145Z,991.84
2019-01-05T10:18:36.324Z,991.79
2019-01-05T10:19:36.523Z,991.79
2019-01-05T10:20:36.692Z,991.75
2019-01-05T10:21:36.879Z,991.79
2019-01-05T10:22:37.061Z,991.81
2019-01-05T10:23:37.246Z,991.75
2019-01-05T10:24:37.421Z,991.69
2019-01-05T10:25:37.617Z,991.80
2019-01-05T10:26:37.796Z,991.76
2019-01-05T10:27:37.976Z,991.73
2019-01-05T10:28:38.185Z,991.79
2019-01-05T10:29:38.374Z,991.76
2019-01-05T10:30:38.552Z,991.74
2019-01-05T10:31:38.734Z,991.69
2019-01-05T10:32:38.920Z,991.80
2019-01-05T10:33:39.114Z,991.65
2019-01-05T10:34:39.302Z,991.68
2019-01-05T10:35:39.487Z,991.71
2019-01-05T10:36:39.669Z,991.79
2019-01-05T10:37:39.854Z,991.71
2019-01-05T10:38:40.040Z,991.68
2019-01-05T10:39:40.226Z,991.67
2019-01-05T10:40:40.409Z,991.67
2019-01-05T10:41:40.593Z,991.65
2019-01-05T10:42:40.773Z,991.64
2019-01-05T10:43:40.966Z,991.62
2019-01-05T10:44:41.151Z,991.63
2019-01-05T10:45:41.340Z,991.65
2019-01-05T10:46:41.520Z,991.63
2019-01-05T10:47:41.695Z,991.64
2019-01-05T10:48:41.884Z,991.63
2019-01-05T10:49:42.066Z,991.62
2019-01-05T10:50:42.435Z,991.64
2019-01-05T10:51:42.542Z,991.58
2019-01-05T10:52:42.637Z,991.63
2019-01-05T10:53:42.875Z,991.58
2019-01-05T10:54:42.996Z,991.66
2019-01-05T10:55:43.181Z,991.68
2019-01-05T10:56:43.358Z,991.66
2019-01-05T10:57:43.549Z,991.63
2019-01-05T10:58:43.735Z,991.68
2019-01-05T10:59:43.918Z,991.61
2019-01-05T11:00:44.106Z,991.67
2019-01-05T11:01:44.284Z,991.69
2019-01-05T11:02:44.471Z,991.63
2019-01-05T11:03:44.650Z,991.63
2019-01-05T11:04:44.844Z,991.68
2019-01-05T11:05:45.028Z,991.60
2019-01-05T11:06:45.214Z,991.58
2019-01-05T11:07:45.400Z,991.61
2019-01-05T11:08:45.587Z,991.65
2019-01-05T11:09:45.775Z,991.67
2019-01-05T11:10:45.958Z,991.58
2019-01-05T11:11:46.155Z,991.66
2019-01-05T11:12:46.332Z,991.61
2019-01-05T11:13:46.544Z,991.66
2019-01-05T11:14:46.737Z,991.69
2019-01-05T11:15:46.917Z,991.66
2019-01-05T11:16:47.105Z,991.63
2019-01-05T11:17:47.293Z,991.74
2019-01-05T11:18:47.477Z,991.70
2019-01-05T11:19:47.670Z,991.70
2019-01-05T11:20:47.843Z,991.64
2019-01-05T11:21:48.024Z,991.67
2019-01-05T11:22:48.215Z,991.67
2019-01-05T11:23:48.400Z,991.64
2019-01-05T11:24:48.588Z,991.68
2019-01-05T11:25:48.764Z,991.63
2019-01-05T11:26:48.945Z,991.69
2019-01-05T11:27:49.133Z,991.64
2019-01-05T11:28:49.308Z,991.68
2019-01-05T11:29:49.500Z,991.59
2019-01-05T11:30:49.689Z,991.68
2019-01-05T11:31:49.863Z,991.66
2019-01-05T11:32:50.061Z,991.72
2019-01-05T11:33:50.222Z,991.69
2019-01-05T11:34:50.415Z,991.67
2019-01-05T11:35:50.613Z,991.64
2019-01-05T11:36:50.803Z,991.69
2019-01-05T11:37:51.042Z,991.70
2019-01-05T11:40:33.800Z,991.67
2019-01-05T11:41:34.054Z,991.70
2019-01-05T11:42:34.196Z,991.70
2019-01-05T11:43:34.383Z,991.70
2019-01-05T11:44:34.584Z,991.70
2019-01-05T11:45:34.766Z,991.69
2019-01-05T11:46:34.945Z,991.66
2019-01-05T11:47:35.125Z,991.67
2019-01-05T11:48:35.315Z,991.68
2019-01-05T11:49:35.496Z,991.62
2019-01-05T11:50:35.696Z,991.53
2019-01-05T11:51:35.857Z,991.59
2019-01-05T11:52:36.026Z,991.62
2019-01-05T11:53:36.221Z,991.54
2019-01-05T11:54:36.400Z,991.44
2019-01-05T11:55:36.584Z,991.47
2019-01-05T11:56:36.770Z,991.47
2019-01-05T11:57:36.968Z,991.49
2019-01-05T11:58:37.158Z,991.44
2019-01-05T11:59:37.344Z,991.47
2019-01-05T12:00:37.532Z,991.46
2019-01-05T12:01:37.734Z,991.50
2019-01-05T12:02:37.900Z,991.44
2019-01-05T12:03:38.084Z,991.47
2019-01-05T12:04:38.271Z,991.46
2019-01-05T12:05:38.447Z,991.47
2019-01-05T12:06:38.635Z,991.50
2019-01-05T12:07:38.840Z,991.43
2019-01-05T12:08:39.009Z,991.47
2019-01-05T12:09:39.186Z,991.46
2019-01-05T12:10:39.381Z,991.41
2019-01-05T12:11:39.557Z,991.51
2019-01-05T12:12:39.740Z,991.50
2019-01-05T12:13:39.923Z,991.46
2019-01-05T12:14:40.108Z,991.52
2019-01-05T12:15:40.295Z,991.47
2019-01-05T12:16:40.911Z,991.51
2019-01-05T12:17:40.684Z,991.48
2019-01-05T12:18:40.874Z,991.51
2019-01-05T12:19:41.056Z,991.57
2019-01-05T12:20:41.271Z,991.51
2019-01-05T12:21:41.423Z,991.56
2019-01-05T12:22:41.613Z,991.59
2019-01-05T12:23:41.829Z,991.53
2019-01-05T12:24:42.043Z,991.54
2019-01-05T12:25:42.232Z,991.55
2019-01-05T12:26:42.413Z,991.56
2019-01-05T12:27:42.588Z,991.60
2019-01-05T12:28:42.784Z,991.55
2019-01-05T12:29:42.987Z,991.55
2019-01-05T12:30:43.210Z,991.54
2019-01-05T12:31:43.391Z,991.55
2019-01-05T12:32:43.571Z,991.53
2019-01-05T12:33:43.760Z,991.53
2019-01-05T12:34:43.939Z,991.55